sensor_id;sensor_type;location;lat;lon;timestamp;pressure;altitude;pressure_sealevel;temperature;humidity
64064;BME280;50314;50.618;10.642;2022-10-26T00:02:19;96839.25;;;17.10;29.51
64064;BME280;50314;50.618;10.642;2022-10-26T00:04:44;96829.59;;;17.09;29.54
64064;BME280;50314;50.618;10.642;2022-10-26T00:07:10;96836.72;;;17.08;29.56
64064;BME280;50314;50.618;10.642;2022-10-26T00:09:35;96828.91;;;17.07;29.35
64064;BME280;50314;50.618;10.642;2022-10-26T00:12:02;96829.88;;;17.06;29.46
64064;BME280;50314;50.618;10.642;2022-10-26T00:14:27;96827.22;;;17.06;29.52
64064;BME280;50314;50.618;10.642;2022-10-26T00:16:53;96824.69;;;17.04;29.26
64064;BME280;50314;50.618;10.642;2022-10-26T00:19:18;96835.34;;;17.04;29.41
64064;BME280;50314;50.618;10.642;2022-10-26T00:21:43;96829.34;;;17.02;29.37
64064;BME280;50314;50.618;10.642;2022-10-26T00:24:12;96828.66;;;17.00;29.57
64064;BME280;50314;50.618;10.642;2022-10-26T00:26:38;96833.97;;;17.00;29.46
64064;BME280;50314;50.618;10.642;2022-10-26T00:29:04;96838.47;;;17.00;29.25
64064;BME280;50314;50.618;10.642;2022-10-26T00:31:29;96830.31;;;17.01;29.57
64064;BME280;50314;50.618;10.642;2022-10-26T00:33:55;96836.81;;;16.99;29.38
64064;BME280;50314;50.618;10.642;2022-10-26T00:36:23;96829.78;;;16.98;29.61
64064;BME280;50314;50.618;10.642;2022-10-26T00:38:53;96837.94;;;16.96;29.63
64064;BME280;50314;50.618;10.642;2022-10-26T00:41:22;96836.81;;;16.99;29.51
64064;BME280;50314;50.618;10.642;2022-10-26T00:43:48;96828.97;;;16.97;29.42
64064;BME280;50314;50.618;10.642;2022-10-26T00:48:54;96832.63;;;16.96;29.52
64064;BME280;50314;50.618;10.642;2022-10-26T00:51:30;96833.75;;;16.94;29.54
64064;BME280;50314;50.618;10.642;2022-10-26T00:53:58;96836.09;;;16.97;29.53
64064;BME280;50314;50.618;10.642;2022-10-26T00:56:26;96838.75;;;16.97;29.45
64064;BME280;50314;50.618;10.642;2022-10-26T00:58:51;96836.09;;;16.97;29.40
64064;BME280;50314;50.618;10.642;2022-10-26T01:01:17;96833.44;;;16.97;29.46
64064;BME280;50314;50.618;10.642;2022-10-26T01:03:43;96829.94;;;16.96;29.42
64064;BME280;50314;50.618;10.642;2022-10-26T01:06:10;96818.47;;;16.96;29.37
64064;BME280;50314;50.618;10.642;2022-10-26T01:08:36;96826.47;;;16.96;29.68
64064;BME280;50314;50.618;10.642;2022-10-26T01:11:02;96822.94;;;16.95;29.45
64064;BME280;50314;50.618;10.642;2022-10-26T01:13:29;96821.97;;;16.96;29.51
64064;BME280;50314;50.618;10.642;2022-10-26T01:16:19;96822.56;;;16.90;29.73
64064;BME280;50314;50.618;10.642;2022-10-26T01:18:57;96827.59;;;16.93;29.58
64064;BME280;50314;50.618;10.642;2022-10-26T01:21:47;96814.72;;;16.88;29.50
64064;BME280;50314;50.618;10.642;2022-10-26T01:30:15;96808.88;;;16.85;29.62
64064;BME280;50314;50.618;10.642;2022-10-26T01:33:06;96807.38;;;16.82;29.66
64064;BME280;50314;50.618;10.642;2022-10-26T01:38:13;96807.38;;;16.82;29.61
64064;BME280;50314;50.618;10.642;2022-10-26T01:40:53;96798.38;;;16.83;29.57
64064;BME280;50314;50.618;10.642;2022-10-26T01:43:24;96803.53;;;16.85;29.42
64064;BME280;50314;50.618;10.642;2022-10-26T01:45:51;96806.06;;;16.86;29.47
64064;BME280;50314;50.618;10.642;2022-10-26T01:48:19;96799.91;;;16.86;29.57
64064;BME280;50314;50.618;10.642;2022-10-26T01:50:49;96799.09;;;16.85;29.72
64064;BME280;50314;50.618;10.642;2022-10-26T01:53:18;96801.88;;;16.84;29.45
64064;BME280;50314;50.618;10.642;2022-10-26T01:55:51;96791.41;;;16.82;29.63
64064;BME280;50314;50.618;10.642;2022-10-26T02:01:33;96788.03;;;16.80;29.67
64064;BME280;50314;50.618;10.642;2022-10-26T02:07:02;96787.06;;;16.81;29.41
64064;BME280;50314;50.618;10.642;2022-10-26T02:12:19;96778.38;;;16.79;29.58
64064;BME280;50314;50.618;10.642;2022-10-26T02:14:53;96780.06;;;16.80;29.61
64064;BME280;50314;50.618;10.642;2022-10-26T02:17:49;96781.47;;;16.75;29.72
64064;BME280;50314;50.618;10.642;2022-10-26T02:20:34;96776.16;;;16.75;29.56
64064;BME280;50314;50.618;10.642;2022-10-26T02:23:03;96779.34;;;16.78;29.56
64064;BME280;50314;50.618;10.642;2022-10-26T02:25:31;96785.53;;;16.79;29.58
64064;BME280;50314;50.618;10.642;2022-10-26T02:28:05;96784.00;;;16.76;29.56
64064;BME280;50314;50.618;10.642;2022-10-26T02:30:32;96786.34;;;16.79;29.59
64064;BME280;50314;50.618;10.642;2022-10-26T02:32:59;96786.34;;;16.79;29.60
64064;BME280;50314;50.618;10.642;2022-10-26T02:35:28;96785.66;;;16.77;29.47
64064;BME280;50314;50.618;10.642;2022-10-26T02:37:58;96786.34;;;16.79;29.62
64064;BME280;50314;50.618;10.642;2022-10-26T02:40:26;96783.69;;;16.79;29.36
64064;BME280;50314;50.618;10.642;2022-10-26T02:42:54;96782.84;;;16.79;29.50
64064;BME280;50314;50.618;10.642;2022-10-26T02:45:25;96779.34;;;16.78;29.57
64064;BME280;50314;50.618;10.642;2022-10-26T02:47:53;96777.53;;;16.79;29.28
64064;BME280;50314;50.618;10.642;2022-10-26T02:50:21;96775.84;;;16.78;29.31
64064;BME280;50314;50.618;10.642;2022-10-26T02:52:56;96771.69;;;16.75;29.48
64064;BME280;50314;50.618;10.642;2022-10-26T02:55:34;96775.31;;;16.74;29.55
64064;BME280;50314;50.618;10.642;2022-10-26T02:58:05;96772.53;;;16.76;29.55
64064;BME280;50314;50.618;10.642;2022-10-26T03:00:32;96768.03;;;16.76;29.56
64064;BME280;50314;50.618;10.642;2022-10-26T03:02:58;96771.53;;;16.77;29.39
64064;BME280;50314;50.618;10.642;2022-10-26T03:05:29;96768.03;;;16.76;29.38
64064;BME280;50314;50.618;10.642;2022-10-26T03:08:00;96761.06;;;16.75;29.57
64064;BME280;50314;50.618;10.642;2022-10-26T03:10:25;96764.66;;;16.74;29.55
64064;BME280;50314;50.618;10.642;2022-10-26T03:12:51;96764.66;;;16.74;29.47
64064;BME280;50314;50.618;10.642;2022-10-26T03:15:17;96759.34;;;16.74;29.48
64064;BME280;50314;50.618;10.642;2022-10-26T03:17:42;96761.06;;;16.75;29.40
64064;BME280;50314;50.618;10.642;2022-10-26T03:20:08;96766.38;;;16.75;29.48
64064;BME280;50314;50.618;10.642;2022-10-26T03:22:34;96760.06;;;16.76;29.45
64064;BME280;50314;50.618;10.642;2022-10-26T03:25:00;96768.16;;;16.75;29.45
64064;BME280;50314;50.618;10.642;2022-10-26T03:27:25;96765.50;;;16.75;29.29
64064;BME280;50314;50.618;10.642;2022-10-26T03:29:51;96768.31;;;16.73;29.45
64064;BME280;50314;50.618;10.642;2022-10-26T03:32:17;96771.69;;;16.75;29.55
64064;BME280;50314;50.618;10.642;2022-10-26T03:34:42;96758.53;;;16.74;29.40
64064;BME280;50314;50.618;10.642;2022-10-26T03:37:07;96767.34;;;16.74;29.36
64064;BME280;50314;50.618;10.642;2022-10-26T03:39:33;96762.84;;;16.75;29.65
64064;BME280;50314;50.618;10.642;2022-10-26T03:41:58;96759.22;;;16.76;29.44
64064;BME280;50314;50.618;10.642;2022-10-26T03:44:24;96760.06;;;16.76;29.38
64064;BME280;50314;50.618;10.642;2022-10-26T03:46:49;96761.06;;;16.75;29.48
64064;BME280;50314;50.618;10.642;2022-10-26T03:49:15;96763.72;;;16.75;29.42
64064;BME280;50314;50.618;10.642;2022-10-26T03:51:40;96756.56;;;16.76;29.48
64064;BME280;50314;50.618;10.642;2022-10-26T03:54:06;96757.41;;;16.76;29.45
64064;BME280;50314;50.618;10.642;2022-10-26T03:56:32;96750.41;;;16.75;29.49
64064;BME280;50314;50.618;10.642;2022-10-26T03:58:57;96756.56;;;16.76;29.50
64064;BME280;50314;50.618;10.642;2022-10-26T04:01:23;96761.88;;;16.76;29.48
64064;BME280;50314;50.618;10.642;2022-10-26T04:03:48;96762.19;;;16.73;29.71
64064;BME280;50314;50.618;10.642;2022-10-26T04:06:14;96758.53;;;16.74;29.29
64064;BME280;50314;50.618;10.642;2022-10-26T04:08:39;96756.69;;;16.74;29.46
64064;BME280;50314;50.618;10.642;2022-10-26T04:11:05;96755.88;;;16.74;29.50
64064;BME280;50314;50.618;10.642;2022-10-26T04:13:30;96751.38;;;16.74;29.54
64064;BME280;50314;50.618;10.642;2022-10-26T04:15:56;96750.53;;;16.74;29.43
64064;BME280;50314;50.618;10.642;2022-10-26T04:18:22;96751.38;;;16.74;29.39
64064;BME280;50314;50.618;10.642;2022-10-26T04:20:47;96754.03;;;16.74;29.48
64064;BME280;50314;50.618;10.642;2022-10-26T04:23:14;96756.69;;;16.74;29.48
64064;BME280;50314;50.618;10.642;2022-10-26T04:25:41;96757.41;;;16.76;29.34
64064;BME280;50314;50.618;10.642;2022-10-26T04:28:08;96757.41;;;16.76;29.39
64064;BME280;50314;50.618;10.642;2022-10-26T04:30:34;96765.38;;;16.76;29.57
64064;BME280;50314;50.618;10.642;2022-10-26T04:33:00;96761.72;;;16.77;29.39
64064;BME280;50314;50.618;10.642;2022-10-26T04:35:26;96764.38;;;16.77;29.39
64064;BME280;50314;50.618;10.642;2022-10-26T04:38:00;96758.38;;;16.75;29.36
64064;BME280;50314;50.618;10.642;2022-10-26T04:40:26;96753.75;;;16.77;29.40
64064;BME280;50314;50.618;10.642;2022-10-26T04:42:52;96754.56;;;16.78;29.32
64064;BME280;50314;50.618;10.642;2022-10-26T04:45:17;96754.56;;;16.78;29.41
64064;BME280;50314;50.618;10.642;2022-10-26T04:47:43;96750.09;;;16.78;29.35
64064;BME280;50314;50.618;10.642;2022-10-26T04:50:09;96751.66;;;16.81;29.44
64064;BME280;50314;50.618;10.642;2022-10-26T04:52:35;96752.38;;;16.73;29.37
64064;BME280;50314;50.618;10.642;2022-10-26T04:55:01;96753.59;;;16.79;29.45
64064;BME280;50314;50.618;10.642;2022-10-26T04:57:30;96753.59;;;16.79;29.46
64064;BME280;50314;50.618;10.642;2022-10-26T04:59:56;96751.78;;;16.79;29.52
64064;BME280;50314;50.618;10.642;2022-10-26T05:02:21;96750.81;;;16.80;29.44
64064;BME280;50314;50.618;10.642;2022-10-26T05:04:47;96752.63;;;16.80;29.31
64064;BME280;50314;50.618;10.642;2022-10-26T05:07:12;96749.13;;;16.79;29.42
64064;BME280;50314;50.618;10.642;2022-10-26T05:09:37;96749.13;;;16.79;29.21
64064;BME280;50314;50.618;10.642;2022-10-26T05:12:03;96758.94;;;16.79;29.28
64064;BME280;50314;50.618;10.642;2022-10-26T05:14:28;96762.41;;;16.79;29.48
64064;BME280;50314;50.618;10.642;2022-10-26T05:16:54;96763.28;;;16.80;29.31
64064;BME280;50314;50.618;10.642;2022-10-26T05:19:20;96764.25;;;16.79;29.25
64064;BME280;50314;50.618;10.642;2022-10-26T05:21:45;96770.41;;;16.79;29.46
64064;BME280;50314;50.618;10.642;2022-10-26T05:24:11;96772.09;;;16.80;29.29
64064;BME280;50314;50.618;10.642;2022-10-26T05:26:36;96780.06;;;16.80;29.37
64064;BME280;50314;50.618;10.642;2022-10-26T05:29:02;96774.75;;;16.80;29.34
64064;BME280;50314;50.618;10.642;2022-10-26T05:31:27;96771.09;;;16.81;29.25
64064;BME280;50314;50.618;10.642;2022-10-26T05:33:52;96771.09;;;16.81;29.21
64064;BME280;50314;50.618;10.642;2022-10-26T05:36:18;96773.75;;;16.81;29.55
64064;BME280;50314;50.618;10.642;2022-10-26T05:38:44;96763.13;;;16.81;29.46
64064;BME280;50314;50.618;10.642;2022-10-26T05:41:10;96778.09;;;16.82;29.13
64064;BME280;50314;50.618;10.642;2022-10-26T05:43:35;96772.91;;;16.81;29.46
64064;BME280;50314;50.618;10.642;2022-10-26T05:46:00;96766.78;;;16.80;29.24
64064;BME280;50314;50.618;10.642;2022-10-26T05:48:26;96774.75;;;16.80;29.40
64064;BME280;50314;50.618;10.642;2022-10-26T05:50:51;96774.75;;;16.80;29.34
64064;BME280;50314;50.618;10.642;2022-10-26T05:53:17;96776.41;;;16.81;29.33
64064;BME280;50314;50.618;10.642;2022-10-26T05:55:42;96784.25;;;16.83;29.36
64064;BME280;50314;50.618;10.642;2022-10-26T05:58:09;96784.25;;;16.83;29.36
64064;BME280;50314;50.618;10.642;2022-10-26T06:00:35;96791.97;;;16.76;29.50
64064;BME280;50314;50.618;10.642;2022-10-26T06:03:18;96783.69;;;16.79;29.40
64064;BME280;50314;50.618;10.642;2022-10-26T06:05:54;96784.66;;;16.78;29.44
64064;BME280;50314;50.618;10.642;2022-10-26T06:08:22;96782.59;;;16.82;29.26
64064;BME280;50314;50.618;10.642;2022-10-26T06:10:48;96779.78;;;16.83;29.31
64064;BME280;50314;50.618;10.642;2022-10-26T06:13:14;96784.09;;;16.84;29.44
64064;BME280;50314;50.618;10.642;2022-10-26T06:19:11;96775.72;;;16.79;29.38
64064;BME280;50314;50.618;10.642;2022-10-26T06:21:50;96783.00;;;16.77;29.61
64064;BME280;50314;50.618;10.642;2022-10-26T06:24:20;96786.78;;;16.75;29.55
64064;BME280;50314;50.618;10.642;2022-10-26T06:27:26;96785.66;;;16.77;29.46
64064;BME280;50314;50.618;10.642;2022-10-26T06:32:24;96812.53;;;16.84;29.53
64064;BME280;50314;50.618;10.642;2022-10-26T06:34:53;96811.38;;;16.86;29.58
64064;BME280;50314;50.618;10.642;2022-10-26T06:37:23;96803.13;;;16.89;29.60
64064;BME280;50314;50.618;10.642;2022-10-26T06:39:49;96809.09;;;16.91;29.55
64064;BME280;50314;50.618;10.642;2022-10-26T06:42:15;96800.16;;;16.93;29.77
64064;BME280;50314;50.618;10.642;2022-10-26T06:44:41;96800.81;;;16.95;29.74
64064;BME280;50314;50.618;10.642;2022-10-26T06:47:34;96803.78;;;16.91;29.89
64064;BME280;50314;50.618;10.642;2022-10-26T06:52:37;96803.47;;;16.95;29.96
64064;BME280;50314;50.618;10.642;2022-10-26T06:55:12;96805.84;;;16.98;30.04
64064;BME280;50314;50.618;10.642;2022-10-26T06:57:38;96796.91;;;16.99;30.01
64064;BME280;50314;50.618;10.642;2022-10-26T07:00:18;96808.19;;;17.01;30.02
64064;BME280;50314;50.618;10.642;2022-10-26T07:02:44;96806.25;;;17.03;29.82
64064;BME280;50314;50.618;10.642;2022-10-26T07:05:10;96803.41;;;17.04;29.91
64064;BME280;50314;50.618;10.642;2022-10-26T07:07:40;96805.06;;;17.05;30.14
64064;BME280;50314;50.618;10.642;2022-10-26T07:10:06;96810.09;;;17.08;29.80
64064;BME280;50314;50.618;10.642;2022-10-26T07:12:32;96808.84;;;17.12;29.73
64064;BME280;50314;50.618;10.642;2022-10-26T07:14:57;96807.00;;;17.13;29.89
64064;BME280;50314;50.618;10.642;2022-10-26T07:17:24;96817.34;;;17.16;29.80
64064;BME280;50314;50.618;10.642;2022-10-26T07:19:51;96821.38;;;17.20;29.75
64064;BME280;50314;50.618;10.642;2022-10-26T07:22:16;96818.41;;;17.23;30.05
64064;BME280;50314;50.618;10.642;2022-10-26T07:24:42;96817.41;;;17.24;29.63
64064;BME280;50314;50.618;10.642;2022-10-26T07:27:07;96818.25;;;17.25;29.57
64064;BME280;50314;50.618;10.642;2022-10-26T07:29:33;96811.78;;;17.27;29.54
64064;BME280;50314;50.618;10.642;2022-10-26T07:31:59;96810.78;;;17.28;29.78
64064;BME280;50314;50.618;10.642;2022-10-26T07:34:25;96816.09;;;17.28;29.68
64064;BME280;50314;50.618;10.642;2022-10-26T07:36:50;96819.47;;;17.30;29.81
64064;BME280;50314;50.618;10.642;2022-10-26T07:39:16;96821.81;;;17.33;29.70
64064;BME280;50314;50.618;10.642;2022-10-26T07:41:41;96826.03;;;17.36;29.76
64064;BME280;50314;50.618;10.642;2022-10-26T07:44:07;96827.50;;;17.38;29.67
64064;BME280;50314;50.618;10.642;2022-10-26T07:46:32;96822.88;;;17.41;29.92
64064;BME280;50314;50.618;10.642;2022-10-26T07:48:57;96825.25;;;17.44;29.71
64064;BME280;50314;50.618;10.642;2022-10-26T07:51:23;96833.88;;;17.46;29.68
64064;BME280;50314;50.618;10.642;2022-10-26T07:53:48;96828.28;;;17.49;29.68
64064;BME280;50314;50.618;10.642;2022-10-26T07:56:14;96835.00;;;17.53;29.68
64064;BME280;50314;50.618;10.642;2022-10-26T07:58:40;96837.19;;;17.57;29.96
64064;BME280;50314;50.618;10.642;2022-10-26T08:01:10;96838.56;;;17.61;29.95
64064;BME280;50314;50.618;10.642;2022-10-26T08:03:36;96842.59;;;17.66;29.95
64064;BME280;50314;50.618;10.642;2022-10-26T08:06:01;96843.28;;;17.68;29.60
64064;BME280;50314;50.618;10.642;2022-10-26T08:08:29;96844.94;;;17.69;29.99
64064;BME280;50314;50.618;10.642;2022-10-26T08:10:54;96841.97;;;17.72;29.85
64064;BME280;50314;50.618;10.642;2022-10-26T08:13:19;96846.16;;;17.74;29.70
64064;BME280;50314;50.618;10.642;2022-10-26T08:15:45;96842.50;;;17.75;29.78
64064;BME280;50314;50.618;10.642;2022-10-26T08:18:11;96841.53;;;17.76;29.65
64064;BME280;50314;50.618;10.642;2022-10-26T08:20:37;96851.19;;;17.77;29.78
64064;BME280;50314;50.618;10.642;2022-10-26T08:23:02;96857.50;;;17.76;29.99
64064;BME280;50314;50.618;10.642;2022-10-26T08:25:31;96863.50;;;17.78;29.89
64064;BME280;50314;50.618;10.642;2022-10-26T08:28:02;96863.66;;;17.77;29.54
64064;BME280;50314;50.618;10.642;2022-10-26T08:30:31;96870.66;;;17.78;29.77
64064;BME280;50314;50.618;10.642;2022-10-26T08:33:02;96870.81;;;17.76;29.55
64064;BME280;50314;50.618;10.642;2022-10-26T08:35:28;96877.94;;;17.76;29.74
64064;BME280;50314;50.618;10.642;2022-10-26T08:37:53;96876.28;;;17.75;29.67
64064;BME280;50314;50.618;10.642;2022-10-26T08:40:24;96880.91;;;17.73;29.88
64064;BME280;50314;50.618;10.642;2022-10-26T08:42:54;96882.63;;;17.74;29.95
64064;BME280;50314;50.618;10.642;2022-10-26T08:45:28;96883.75;;;17.71;29.84
64064;BME280;50314;50.618;10.642;2022-10-26T08:47:59;96889.09;;;17.71;29.79
64064;BME280;50314;50.618;10.642;2022-10-26T08:55:39;96895.53;;;17.69;29.66
64064;BME280;50314;50.618;10.642;2022-10-26T08:58:06;96890.00;;;17.62;30.05
64064;BME280;50314;50.618;10.642;2022-10-26T09:00:38;96889.56;;;17.67;29.95
64064;BME280;50314;50.618;10.642;2022-10-26T09:03:13;96893.34;;;17.64;30.00
64064;BME280;50314;50.618;10.642;2022-10-26T09:06:12;96896.00;;;17.64;30.19
64064;BME280;50314;50.618;10.642;2022-10-26T09:24:53;96901.03;;;17.67;29.83
64064;BME280;50314;50.618;10.642;2022-10-26T09:27:29;96907.03;;;17.69;30.08
64064;BME280;50314;50.618;10.642;2022-10-26T09:29:59;96907.72;;;17.71;29.92
64064;BME280;50314;50.618;10.642;2022-10-26T09:32:37;96909.38;;;17.72;29.87
64064;BME280;50314;50.618;10.642;2022-10-26T09:35:27;96903.22;;;17.72;30.26
64064;BME280;50314;50.618;10.642;2022-10-26T09:37:56;96896.16;;;17.80;29.79
64064;BME280;50314;50.618;10.642;2022-10-26T09:43:16;96901.72;;;17.87;29.92
64064;BME280;50314;50.618;10.642;2022-10-26T09:45:48;96908.88;;;17.87;29.99
64064;BME280;50314;50.618;10.642;2022-10-26T09:50:59;96917.22;;;17.92;29.93
64064;BME280;50314;50.618;10.642;2022-10-26T09:53:25;96914.25;;;17.95;29.81
64064;BME280;50314;50.618;10.642;2022-10-26T09:56:08;96922.94;;;17.97;29.85
64064;BME280;50314;50.618;10.642;2022-10-26T09:58:39;96916.97;;;18.03;30.02
64064;BME280;50314;50.618;10.642;2022-10-26T10:01:06;96912.84;;;18.08;29.89
64064;BME280;50314;50.618;10.642;2022-10-26T10:03:32;96908.78;;;18.14;29.81
64064;BME280;50314;50.618;10.642;2022-10-26T10:08:40;96909.41;;;18.34;29.75
64064;BME280;50314;50.618;10.642;2022-10-26T10:11:10;96909.66;;;18.49;29.62
64064;BME280;50314;50.618;10.642;2022-10-26T10:13:45;96898.88;;;18.59;29.73
64064;BME280;50314;50.618;10.642;2022-10-26T10:16:18;96897.09;;;18.75;29.70
64064;BME280;50314;50.618;10.642;2022-10-26T10:18:52;96894.84;;;18.89;29.71
64064;BME280;50314;50.618;10.642;2022-10-26T10:21:18;96886.09;;;19.05;29.48
64064;BME280;50314;50.618;10.642;2022-10-26T10:23:49;96887.09;;;19.20;29.38
64064;BME280;50314;50.618;10.642;2022-10-26T10:26:16;96883.97;;;19.33;29.26
64064;BME280;50314;50.618;10.642;2022-10-26T10:28:42;96893.34;;;19.45;28.93
64064;BME280;50314;50.618;10.642;2022-10-26T10:31:21;96900.06;;;19.49;28.78
64064;BME280;50314;50.618;10.642;2022-10-26T10:33:50;96895.41;;;19.59;29.09
64064;BME280;50314;50.618;10.642;2022-10-26T10:36:19;96893.03;;;19.64;29.04
64064;BME280;50314;50.618;10.642;2022-10-26T10:38:47;96903.75;;;19.81;28.85
64064;BME280;50314;50.618;10.642;2022-10-26T10:41:20;96903.75;;;19.97;28.73
64064;BME280;50314;50.618;10.642;2022-10-26T10:44:02;96905.44;;;20.14;28.45
64064;BME280;50314;50.618;10.642;2022-10-26T10:46:29;96914.28;;;20.23;28.27
64064;BME280;50314;50.618;10.642;2022-10-26T10:49:04;96911.78;;;20.22;28.28
64064;BME280;50314;50.618;10.642;2022-10-26T10:51:35;96915.28;;;20.22;28.17
64064;BME280;50314;50.618;10.642;2022-10-26T10:54:03;96917.94;;;20.22;28.08
64064;BME280;50314;50.618;10.642;2022-10-26T10:56:50;96919.81;;;20.13;28.25
64064;BME280;50314;50.618;10.642;2022-10-26T11:04:57;96909.28;;;20.20;28.28
64064;BME280;50314;50.618;10.642;2022-10-26T11:07:23;96903.25;;;20.18;28.38
64064;BME280;50314;50.618;10.642;2022-10-26T11:09:49;96907.06;;;20.32;28.22
64064;BME280;50314;50.618;10.642;2022-10-26T11:12:32;96919.09;;;20.36;28.11
64064;BME280;50314;50.618;10.642;2022-10-26T11:15:01;96921.44;;;20.39;28.41
64064;BME280;50314;50.618;10.642;2022-10-26T11:20:43;96922.25;;;20.39;28.14
64064;BME280;50314;50.618;10.642;2022-10-26T11:23:18;96921.44;;;20.39;27.94
64064;BME280;50314;50.618;10.642;2022-10-26T11:26:04;96927.78;;;20.38;28.10
64064;BME280;50314;50.618;10.642;2022-10-26T11:31:12;96925.47;;;20.35;27.77
64064;BME280;50314;50.618;10.642;2022-10-26T11:33:47;96923.94;;;20.32;28.12
64064;BME280;50314;50.618;10.642;2022-10-26T11:36:19;96926.47;;;20.34;27.96
64064;BME280;50314;50.618;10.642;2022-10-26T11:41:21;96918.41;;;20.42;28.00
64064;BME280;50314;50.618;10.642;2022-10-26T11:43:56;96908.22;;;20.46;28.04
64064;BME280;50314;50.618;10.642;2022-10-26T11:46:31;96900.53;;;20.51;27.93
64064;BME280;50314;50.618;10.642;2022-10-26T11:49:20;96889.81;;;20.51;28.25
64064;BME280;50314;50.618;10.642;2022-10-26T11:54:54;96888.94;;;20.67;27.99
64064;BME280;50314;50.618;10.642;2022-10-26T11:57:20;96885.25;;;20.76;28.04
64064;BME280;50314;50.618;10.642;2022-10-26T11:59:59;96899.28;;;20.78;27.96
64064;BME280;50314;50.618;10.642;2022-10-26T12:02:26;96911.28;;;20.90;27.96
64064;BME280;50314;50.618;10.642;2022-10-26T12:05:18;96915.97;;;20.88;28.05
64064;BME280;50314;50.618;10.642;2022-10-26T12:07:55;96928.34;;;20.89;27.78
64064;BME280;50314;50.618;10.642;2022-10-26T12:10:28;96926.50;;;20.89;27.59
64064;BME280;50314;50.618;10.642;2022-10-26T12:13:14;96930.38;;;20.87;27.61
64064;BME280;50314;50.618;10.642;2022-10-26T12:15:46;96938.03;;;20.90;27.56
64064;BME280;50314;50.618;10.642;2022-10-26T12:20:55;96932.38;;;20.85;27.60
64064;BME280;50314;50.618;10.642;2022-10-26T12:23:28;96930.53;;;20.85;27.65
64064;BME280;50314;50.618;10.642;2022-10-26T12:33:58;96931.56;;;20.84;27.78
64064;BME280;50314;50.618;10.642;2022-10-26T12:39:38;96956.81;;;20.82;27.97
64064;BME280;50314;50.618;10.642;2022-10-26T12:44:39;96958.78;;;20.96;27.74
64064;BME280;50314;50.618;10.642;2022-10-26T12:47:09;96950.06;;;21.02;27.75
64064;BME280;50314;50.618;10.642;2022-10-26T13:00:21;96957.66;;;21.30;27.47
64064;BME280;50314;50.618;10.642;2022-10-26T13:08:21;96961.66;;;21.34;27.66
64064;BME280;50314;50.618;10.642;2022-10-26T13:11:03;96957.84;;;21.28;27.71
64064;BME280;50314;50.618;10.642;2022-10-26T13:13:31;96955.66;;;21.32;27.65
64064;BME280;50314;50.618;10.642;2022-10-26T13:15:59;96969.03;;;21.32;27.53
64064;BME280;50314;50.618;10.642;2022-10-26T13:18:25;96959.16;;;21.32;27.75
64064;BME280;50314;50.618;10.642;2022-10-26T13:21:10;96961.53;;;21.27;27.62
64064;BME280;50314;50.618;10.642;2022-10-26T13:23:43;96962.19;;;21.29;27.45
64064;BME280;50314;50.618;10.642;2022-10-26T13:26:24;96957.16;;;21.26;27.59
64064;BME280;50314;50.618;10.642;2022-10-26T13:28:52;96960.34;;;21.30;27.66
64064;BME280;50314;50.618;10.642;2022-10-26T13:33:55;96969.72;;;21.26;27.28
64064;BME280;50314;50.618;10.642;2022-10-26T13:38:54;96973.78;;;21.22;27.43
64064;BME280;50314;50.618;10.642;2022-10-26T13:41:34;96978.97;;;21.15;27.63
64064;BME280;50314;50.618;10.642;2022-10-26T13:44:05;96978.78;;;21.17;27.46
64064;BME280;50314;50.618;10.642;2022-10-26T13:46:37;96985.16;;;21.16;27.41
64064;BME280;50314;50.618;10.642;2022-10-26T13:49:19;96989.19;;;21.11;27.42
64064;BME280;50314;50.618;10.642;2022-10-26T13:51:48;96999.56;;;21.15;27.54
64064;BME280;50314;50.618;10.642;2022-10-26T13:54:36;96998.59;;;21.07;27.58
64064;BME280;50314;50.618;10.642;2022-10-26T13:59:33;97007.44;;;21.08;27.40
64064;BME280;50314;50.618;10.642;2022-10-26T14:02:07;97011.28;;;21.05;27.60
64064;BME280;50314;50.618;10.642;2022-10-26T14:04:38;97009.63;;;21.04;27.53
64064;BME280;50314;50.618;10.642;2022-10-26T14:07:04;97021.34;;;21.03;27.50
64064;BME280;50314;50.618;10.642;2022-10-26T14:09:29;97021.50;;;21.02;27.73
64064;BME280;50314;50.618;10.642;2022-10-26T14:11:57;97021.03;;;20.98;27.42
64064;BME280;50314;50.618;10.642;2022-10-26T14:14:32;97029.41;;;20.95;27.58
64064;BME280;50314;50.618;10.642;2022-10-26T14:16:59;97024.72;;;20.97;27.73
64064;BME280;50314;50.618;10.642;2022-10-26T14:19:29;97028.38;;;20.96;27.52
64064;BME280;50314;50.618;10.642;2022-10-26T14:21:56;97029.06;;;20.98;27.57
64064;BME280;50314;50.618;10.642;2022-10-26T14:24:26;97027.22;;;20.99;27.54
64064;BME280;50314;50.618;10.642;2022-10-26T14:26:52;97026.38;;;20.98;27.56
64064;BME280;50314;50.618;10.642;2022-10-26T14:29:20;97026.38;;;20.98;27.49
64064;BME280;50314;50.618;10.642;2022-10-26T14:31:47;97024.72;;;20.97;27.41
64064;BME280;50314;50.618;10.642;2022-10-26T14:34:17;97026.72;;;20.95;27.36
64064;BME280;50314;50.618;10.642;2022-10-26T14:36:58;97025.41;;;20.91;27.35
64064;BME280;50314;50.618;10.642;2022-10-26T14:39:38;97024.41;;;20.84;27.56
64064;BME280;50314;50.618;10.642;2022-10-26T14:42:24;97034.63;;;20.80;27.49
64064;BME280;50314;50.618;10.642;2022-10-26T14:44:50;97033.44;;;20.83;27.42
64064;BME280;50314;50.618;10.642;2022-10-26T14:47:23;97035.47;;;20.81;27.54
64064;BME280;50314;50.618;10.642;2022-10-26T14:49:50;97035.47;;;20.81;27.72
64064;BME280;50314;50.618;10.642;2022-10-26T14:52:21;97040.13;;;20.79;27.29
64064;BME280;50314;50.618;10.642;2022-10-26T14:57:37;97038.63;;;20.76;27.61
64064;BME280;50314;50.618;10.642;2022-10-26T15:00:18;97040.31;;;20.69;27.69
64064;BME280;50314;50.618;10.642;2022-10-26T15:02:46;97040.16;;;20.71;27.52